<?xml version="1.0" encoding="UTF-8" standalone="no" ?>
<gpx xmlns="http://www.topografix.com/GPX/1/1" xmlns:xsi="http://www.w3.org/2001/XMLSchema-instance" xsi:schemaLocation="http://www.topografix.com/GPX/1/1 http://www.topografix.com/GPX/1/1/gpx.xsd" version="1.1" creator="VisuGPX - https://www.visugpx.com">
  <metadata>
    <name>Edirne-Zagreb</name>
  </metadata>
  <trk>
    <name><![CDATA[Tour d'Europe: étape 647]]></name>
    <extensions>
      <line xmlns="http://www.topografix.com/GPX/gpx_style/0/2">
        <color>888800</color>
        <width>4</width>
      </line>
    </extensions>
    <trkseg>
      <trkpt lat="42.27188" lon="23.1409">
        <ele>596.075042</ele>
        <time>2022-04-06T07:24:12.466Z</time>
      </trkpt>
      <trkpt lat="42.27147" lon="23.13923">
        <ele>596.847422</ele>
        <time>2022-04-06T07:24:48.907Z</time>
      </trkpt>
      <trkpt lat="42.27258" lon="23.13645">
        <ele>596.345999</ele>
        <time>2022-04-06T07:25:48.897Z</time>
      </trkpt>
      <trkpt lat="42.27291" lon="23.13362">
        <ele>580.79601</ele>
        <time>2022-04-06T07:26:49.910Z</time>
      </trkpt>
      <trkpt lat="42.27351" lon="23.1307">
        <ele>566.554405</ele>
        <time>2022-04-06T07:27:55.883Z</time>
      </trkpt>
      <trkpt lat="42.27148" lon="23.13043">
        <ele>565.15658</ele>
        <time>2022-04-06T07:28:58.887Z</time>
      </trkpt>
      <trkpt lat="42.26925" lon="23.12948">
        <ele>560.267639</ele>
        <time>2022-04-06T07:29:51.889Z</time>
      </trkpt>
      <trkpt lat="42.26713" lon="23.12794">
        <ele>558.121204</ele>
        <time>2022-04-06T07:30:33.898Z</time>
      </trkpt>
      <trkpt lat="42.26613" lon="23.12562">
        <ele>549.696744</ele>
        <time>2022-04-06T07:31:35.883Z</time>
      </trkpt>
      <trkpt lat="42.26615" lon="23.12292">
        <ele>551.641017</ele>
        <time>2022-04-06T07:32:44.882Z</time>
      </trkpt>
      <trkpt lat="42.26576" lon="23.12043">
        <ele>561.780382</ele>
        <time>2022-04-06T07:34:24.903Z</time>
      </trkpt>
      <trkpt lat="42.26447" lon="23.11861">
        <ele>574.453983</ele>
        <time>2022-04-06T07:35:53.876Z</time>
      </trkpt>
      <trkpt lat="42.26495" lon="23.11862">
        <ele>587.515896</ele>
        <time>2022-04-06T07:42:25.902Z</time>
      </trkpt>
      <trkpt lat="42.26494" lon="23.11636">
        <ele>560.965848</ele>
        <time>2022-04-06T07:45:36.866Z</time>
      </trkpt>
      <trkpt lat="42.26402" lon="23.11403">
        <ele>574.755755</ele>
        <time>2022-04-06T07:50:53.875Z</time>
      </trkpt>
      <trkpt lat="42.26373" lon="23.11113">
        <ele>577.775301</ele>
        <time>2022-04-06T07:51:41.872Z</time>
      </trkpt>
      <trkpt lat="42.26247" lon="23.10879">
        <ele>560.636177</ele>
        <time>2022-04-06T07:52:27.904Z</time>
      </trkpt>
      <trkpt lat="42.26069" lon="23.10677">
        <ele>552.545591</ele>
        <time>2022-04-06T07:53:07.874Z</time>
      </trkpt>
      <trkpt lat="42.25907" lon="23.10491">
        <ele>545.590391</ele>
        <time>2022-04-06T07:53:48.875Z</time>
      </trkpt>
      <trkpt lat="42.25732" lon="23.10307">
        <ele>536.583982</ele>
        <time>2022-04-06T07:54:30.874Z</time>
      </trkpt>
      <trkpt lat="42.2554" lon="23.1016">
        <ele>531.106051</ele>
        <time>2022-04-06T07:55:21.886Z</time>
      </trkpt>
      <trkpt lat="42.25339" lon="23.10004">
        <ele>528.757164</ele>
        <time>2022-04-06T07:56:18.887Z</time>
      </trkpt>
      <trkpt lat="42.25301" lon="23.09734">
        <ele>527.059839</ele>
        <time>2022-04-06T07:57:08.880Z</time>
      </trkpt>
      <trkpt lat="42.25272" lon="23.09464">
        <ele>521.843377</ele>
        <time>2022-04-06T07:58:02.869Z</time>
      </trkpt>
      <trkpt lat="42.25271" lon="23.09142">
        <ele>528.561168</ele>
        <time>2022-04-06T07:59:09.882Z</time>
      </trkpt>
      <trkpt lat="42.25268" lon="23.08883">
        <ele>551.130488</ele>
        <time>2022-04-06T08:01:00.874Z</time>
      </trkpt>
      <trkpt lat="42.25372" lon="23.08646">
        <ele>549.221045</ele>
        <time>2022-04-06T08:02:10.869Z</time>
      </trkpt>
      <trkpt lat="42.25481" lon="23.08407">
        <ele>543.396959</ele>
        <time>2022-04-06T08:03:10.899Z</time>
      </trkpt>
      <trkpt lat="42.2564" lon="23.08229">
        <ele>545.353392</ele>
        <time>2022-04-06T08:04:26.880Z</time>
      </trkpt>
      <trkpt lat="42.25752" lon="23.07988">
        <ele>553.183347</ele>
        <time>2022-04-06T08:05:45.903Z</time>
      </trkpt>
      <trkpt lat="42.25877" lon="23.0776">
        <ele>555.210576</ele>
        <time>2022-04-06T08:07:25.901Z</time>
      </trkpt>
      <trkpt lat="42.26031" lon="23.07585">
        <ele>553.433908</ele>
        <time>2022-04-06T08:08:40.904Z</time>
      </trkpt>
      <trkpt lat="42.26195" lon="23.07404">
        <ele>552.802651</ele>
        <time>2022-04-06T08:09:45.903Z</time>
      </trkpt>
      <trkpt lat="42.26355" lon="23.07221">
        <ele>560.361524</ele>
        <time>2022-04-06T08:11:17.900Z</time>
      </trkpt>
      <trkpt lat="42.26542" lon="23.07143">
        <ele>564.887333</ele>
        <time>2022-04-06T08:13:14.911Z</time>
      </trkpt>
      <trkpt lat="42.26601" lon="23.06917">
        <ele>574.753948</ele>
        <time>2022-04-06T08:15:18.911Z</time>
      </trkpt>
      <trkpt lat="42.26671" lon="23.06663">
        <ele>572.90473</ele>
        <time>2022-04-06T08:16:13.904Z</time>
      </trkpt>
      <trkpt lat="42.26756" lon="23.06299">
        <ele>549.013184</ele>
        <time>2022-04-06T08:16:53.899Z</time>
      </trkpt>
      <trkpt lat="42.26777" lon="23.05957">
        <ele>527.490981</ele>
        <time>2022-04-06T08:17:22.903Z</time>
      </trkpt>
      <trkpt lat="42.26816" lon="23.05696">
        <ele>513.398543</ele>
        <time>2022-04-06T08:17:42.922Z</time>
      </trkpt>
      <trkpt lat="42.26864" lon="23.05322">
        <ele>507.417991</ele>
        <time>2022-04-06T08:18:19.905Z</time>
      </trkpt>
      <trkpt lat="42.26911" lon="23.05023">
        <ele>514.701079</ele>
        <time>2022-04-06T08:19:13.898Z</time>
      </trkpt>
      <trkpt lat="42.26957" lon="23.04746">
        <ele>519.95082</ele>
        <time>2022-04-06T08:20:14.900Z</time>
      </trkpt>
      <trkpt lat="42.27009" lon="23.04471">
        <ele>520.81615</ele>
        <time>2022-04-06T08:21:14.907Z</time>
      </trkpt>
      <trkpt lat="42.27061" lon="23.04188">
        <ele>522.905275</ele>
        <time>2022-04-06T08:22:14.915Z</time>
      </trkpt>
      <trkpt lat="42.27113" lon="23.03894">
        <ele>525.010977</ele>
        <time>2022-04-06T08:23:17.894Z</time>
      </trkpt>
      <trkpt lat="42.27157" lon="23.03607">
        <ele>526.267215</ele>
        <time>2022-04-06T08:24:17.892Z</time>
      </trkpt>
      <trkpt lat="42.27201" lon="23.03335">
        <ele>528.806541</ele>
        <time>2022-04-06T08:25:32.910Z</time>
      </trkpt>
      <trkpt lat="42.27231" lon="23.03071">
        <ele>535.196293</ele>
        <time>2022-04-06T08:26:58.886Z</time>
      </trkpt>
      <trkpt lat="42.27272" lon="23.02793">
        <ele>538.085156</ele>
        <time>2022-04-06T08:28:11.932Z</time>
      </trkpt>
      <trkpt lat="42.27322" lon="23.02466">
        <ele>535.718298</ele>
        <time>2022-04-06T08:29:10.915Z</time>
      </trkpt>
      <trkpt lat="42.273" lon="23.02121">
        <ele>539.224653</ele>
        <time>2022-04-06T08:30:13.915Z</time>
      </trkpt>
      <trkpt lat="42.2732" lon="23.01848">
        <ele>539.966621</ele>
        <time>2022-04-06T08:31:13.908Z</time>
      </trkpt>
      <trkpt lat="42.27352" lon="23.01565">
        <ele>541.764139</ele>
        <time>2022-04-06T08:32:13.947Z</time>
      </trkpt>
      <trkpt lat="42.27375" lon="23.01291">
        <ele>551.196976</ele>
        <time>2022-04-06T08:33:51.910Z</time>
      </trkpt>
      <trkpt lat="42.2734" lon="23.01032">
        <ele>556.862882</ele>
        <time>2022-04-06T08:35:31.917Z</time>
      </trkpt>
      <trkpt lat="42.27358" lon="23.00749">
        <ele>557.560865</ele>
        <time>2022-04-06T08:36:58.906Z</time>
      </trkpt>
      <trkpt lat="42.27426" lon="23.00468">
        <ele>557.127243</ele>
        <time>2022-04-06T08:37:59.932Z</time>
      </trkpt>
      <trkpt lat="42.27467" lon="23.00183">
        <ele>559.733343</ele>
        <time>2022-04-06T08:38:59.906Z</time>
      </trkpt>
      <trkpt lat="42.27481" lon="22.99901">
        <ele>563.254021</ele>
        <time>2022-04-06T08:40:15.908Z</time>
      </trkpt>
      <trkpt lat="42.27437" lon="22.99631">
        <ele>569.042966</ele>
        <time>2022-04-06T08:41:44.892Z</time>
      </trkpt>
      <trkpt lat="42.27395" lon="22.99363">
        <ele>576.102394</ele>
        <time>2022-04-06T08:43:23.901Z</time>
      </trkpt>
      <trkpt lat="42.27361" lon="22.99105">
        <ele>581.551704</ele>
        <time>2022-04-06T08:45:07.891Z</time>
      </trkpt>
      <trkpt lat="42.2736" lon="22.9883">
        <ele>588.33592</ele>
        <time>2022-04-06T08:46:40.939Z</time>
      </trkpt>
      <trkpt lat="42.27364" lon="22.98554">
        <ele>581.385818</ele>
        <time>2022-04-06T08:47:41.898Z</time>
      </trkpt>
      <trkpt lat="42.27368" lon="22.98255">
        <ele>581.905115</ele>
        <time>2022-04-06T08:48:42.901Z</time>
      </trkpt>
      <trkpt lat="42.27372" lon="22.97966">
        <ele>585.847508</ele>
        <time>2022-04-06T08:49:51.894Z</time>
      </trkpt>
      <trkpt lat="42.27371" lon="22.97687">
        <ele>592.62667</ele>
        <time>2022-04-06T08:51:09.898Z</time>
      </trkpt>
      <trkpt lat="42.27342" lon="22.97421">
        <ele>600.036586</ele>
        <time>2022-04-06T08:52:43.894Z</time>
      </trkpt>
      <trkpt lat="42.27317" lon="22.9716">
        <ele>603.469003</ele>
        <time>2022-04-06T08:54:24.899Z</time>
      </trkpt>
      <trkpt lat="42.27289" lon="22.96902">
        <ele>611.381953</ele>
        <time>2022-04-06T08:56:07.896Z</time>
      </trkpt>
      <trkpt lat="42.27223" lon="22.96642">
        <ele>621.013546</ele>
        <time>2022-04-06T08:58:08.893Z</time>
      </trkpt>
      <trkpt lat="42.27085" lon="22.96464">
        <ele>630.761942</ele>
        <time>2022-04-06T09:00:05.932Z</time>
      </trkpt>
      <trkpt lat="42.27006" lon="22.96234">
        <ele>644.223203</ele>
        <time>2022-04-06T09:02:16.900Z</time>
      </trkpt>
      <trkpt lat="42.27013" lon="22.95991">
        <ele>661.934327</ele>
        <time>2022-04-06T09:04:46.900Z</time>
      </trkpt>
      <trkpt lat="42.26856" lon="22.95875">
        <ele>670.646427</ele>
        <time>2022-04-06T09:06:49.899Z</time>
      </trkpt>
      <trkpt lat="42.26728" lon="22.95683">
        <ele>684.440533</ele>
        <time>2022-04-06T09:11:38.020Z</time>
      </trkpt>
      <trkpt lat="42.26774" lon="22.95462">
        <ele>696.501366</ele>
        <time>2022-04-06T09:14:21.878Z</time>
      </trkpt>
      <trkpt lat="42.26807" lon="22.95205">
        <ele>703.229485</ele>
        <time>2022-04-06T09:16:53.883Z</time>
      </trkpt>
      <trkpt lat="42.26753" lon="22.94944">
        <ele>708.622955</ele>
        <time>2022-04-06T09:18:19.896Z</time>
      </trkpt>
      <trkpt lat="42.26814" lon="22.94663">
        <ele>703.344176</ele>
        <time>2022-04-06T09:18:59.875Z</time>
      </trkpt>
      <trkpt lat="42.26965" lon="22.9435">
        <ele>686.065017</ele>
        <time>2022-04-06T09:19:39.872Z</time>
      </trkpt>
      <trkpt lat="42.27172" lon="22.94279">
        <ele>672.400237</ele>
        <time>2022-04-06T09:20:00.904Z</time>
      </trkpt>
      <trkpt lat="42.27381" lon="22.9428">
        <ele>656.564648</ele>
        <time>2022-04-06T09:20:22.877Z</time>
      </trkpt>
      <trkpt lat="42.27538" lon="22.94128">
        <ele>637.278478</ele>
        <time>2022-04-06T09:20:43.891Z</time>
      </trkpt>
      <trkpt lat="42.27587" lon="22.93807">
        <ele>621.338947</ele>
        <time>2022-04-06T09:21:05.874Z</time>
      </trkpt>
      <trkpt lat="42.2759" lon="22.93529">
        <ele>611.298603</ele>
        <time>2022-04-06T09:21:26.874Z</time>
      </trkpt>
      <trkpt lat="42.27515" lon="22.93282">
        <ele>601.382313</ele>
        <time>2022-04-06T09:21:47.884Z</time>
      </trkpt>
      <trkpt lat="42.27388" lon="22.93043">
        <ele>593.978592</ele>
        <time>2022-04-06T09:22:07.891Z</time>
      </trkpt>
      <trkpt lat="42.27272" lon="22.92784">
        <ele>580.384805</ele>
        <time>2022-04-06T09:22:27.879Z</time>
      </trkpt>
      <trkpt lat="42.2714" lon="22.9258">
        <ele>564.525854</ele>
        <time>2022-04-06T09:22:47.890Z</time>
      </trkpt>
      <trkpt lat="42.2693" lon="22.92587">
        <ele>547.402952</ele>
        <time>2022-04-06T09:23:08.878Z</time>
      </trkpt>
      <trkpt lat="42.26712" lon="22.92534">
        <ele>535.28417</ele>
        <time>2022-04-06T09:23:31.878Z</time>
      </trkpt>
      <trkpt lat="42.26541" lon="22.92292">
        <ele>532.108616</ele>
        <time>2022-04-06T09:24:08.886Z</time>
      </trkpt>
      <trkpt lat="42.26429" lon="22.91993">
        <ele>527.766212</ele>
        <time>2022-04-06T09:24:48.878Z</time>
      </trkpt>
      <trkpt lat="42.26185" lon="22.91781">
        <ele>521.298207</ele>
        <time>2022-04-06T09:25:28.868Z</time>
      </trkpt>
      <trkpt lat="42.25969" lon="22.91658">
        <ele>517.708367</ele>
        <time>2022-04-06T09:26:14.877Z</time>
      </trkpt>
      <trkpt lat="42.25744" lon="22.91555">
        <ele>513.531514</ele>
        <time>2022-04-06T09:27:09.870Z</time>
      </trkpt>
      <trkpt lat="42.25517" lon="22.91387">
        <ele>510.016664</ele>
        <time>2022-04-06T09:27:49.880Z</time>
      </trkpt>
      <trkpt lat="42.25273" lon="22.91135">
        <ele>505.592312</ele>
        <time>2022-04-06T09:28:29.902Z</time>
      </trkpt>
      <trkpt lat="42.25127" lon="22.90828">
        <ele>500.131858</ele>
        <time>2022-04-06T09:29:09.898Z</time>
      </trkpt>
      <trkpt lat="42.25018" lon="22.90531">
        <ele>497.418935</ele>
        <time>2022-04-06T09:29:49.902Z</time>
      </trkpt>
      <trkpt lat="42.25016" lon="22.90201">
        <ele>495.838392</ele>
        <time>2022-04-06T09:30:29.909Z</time>
      </trkpt>
      <trkpt lat="42.2495" lon="22.89935">
        <ele>498.505279</ele>
        <time>2022-04-06T09:31:59.947Z</time>
      </trkpt>
      <trkpt lat="42.24829" lon="22.89724">
        <ele>506.503858</ele>
        <time>2022-04-06T09:33:22.896Z</time>
      </trkpt>
      <trkpt lat="42.24815" lon="22.8946">
        <ele>513.128465</ele>
        <time>2022-04-06T09:34:42.893Z</time>
      </trkpt>
      <trkpt lat="42.24924" lon="22.89204">
        <ele>512.407201</ele>
        <time>2022-04-06T09:35:45.913Z</time>
      </trkpt>
      <trkpt lat="42.25019" lon="22.88927">
        <ele>501.892458</ele>
        <time>2022-04-06T09:36:39.892Z</time>
      </trkpt>
      <trkpt lat="42.25182" lon="22.88713">
        <ele>493.870412</ele>
        <time>2022-04-06T09:37:22.900Z</time>
      </trkpt>
      <trkpt lat="42.25371" lon="22.88613">
        <ele>494.797531</ele>
        <time>2022-04-06T09:38:21.911Z</time>
      </trkpt>
      <trkpt lat="42.25593" lon="22.8854">
        <ele>493.714358</ele>
        <time>2022-04-06T09:39:19.911Z</time>
      </trkpt>
      <trkpt lat="42.25699" lon="22.88309">
        <ele>488.892531</ele>
        <time>2022-04-06T09:40:16.918Z</time>
      </trkpt>
      <trkpt lat="42.25683" lon="22.87998">
        <ele>484.994375</ele>
        <time>2022-04-06T09:41:16.890Z</time>
      </trkpt>
      <trkpt lat="42.25675" lon="22.87712">
        <ele>487.897903</ele>
        <time>2022-04-06T09:42:19.894Z</time>
      </trkpt>
      <trkpt lat="42.25667" lon="22.87414">
        <ele>492.905275</ele>
        <time>2022-04-06T09:43:19.909Z</time>
      </trkpt>
      <trkpt lat="42.25684" lon="22.87089">
        <ele>486.918879</ele>
        <time>2022-04-06T09:44:18.903Z</time>
      </trkpt>
      <trkpt lat="42.25714" lon="22.86768">
        <ele>484.230081</ele>
        <time>2022-04-06T09:45:14.900Z</time>
      </trkpt>
      <trkpt lat="42.2574" lon="22.86503">
        <ele>485.70053</ele>
        <time>2022-04-06T09:45:56.895Z</time>
      </trkpt>
      <trkpt lat="42.25769" lon="22.86199">
        <ele>486.579642</ele>
        <time>2022-04-06T09:46:53.902Z</time>
      </trkpt>
      <trkpt lat="42.25794" lon="22.85931">
        <ele>489.444651</ele>
        <time>2022-04-06T09:47:58.908Z</time>
      </trkpt>
      <trkpt lat="42.25781" lon="22.8568">
        <ele>493.81589</ele>
        <time>2022-04-06T10:10:47.891Z</time>
      </trkpt>
      <trkpt lat="42.25711" lon="22.85414">
        <ele>494.922763</ele>
        <time>2022-04-06T10:12:07.894Z</time>
      </trkpt>
      <trkpt lat="42.2555" lon="22.85304">
        <ele>497.398257</ele>
        <time>2022-04-06T10:15:53.949Z</time>
      </trkpt>
      <trkpt lat="42.2549" lon="22.85032">
        <ele>506.138004</ele>
        <time>2022-04-06T10:16:50.876Z</time>
      </trkpt>
      <trkpt lat="42.25516" lon="22.84762">
        <ele>509.881048</ele>
        <time>2022-04-06T10:18:01.885Z</time>
      </trkpt>
      <trkpt lat="42.25612" lon="22.84489">
        <ele>501.956691</ele>
        <time>2022-04-06T10:19:02.864Z</time>
      </trkpt>
      <trkpt lat="42.2573" lon="22.84239">
        <ele>498.531361</ele>
        <time>2022-04-06T10:19:55.925Z</time>
      </trkpt>
      <trkpt lat="42.25797" lon="22.83953">
        <ele>504.179335</ele>
        <time>2022-04-06T10:20:55.880Z</time>
      </trkpt>
      <trkpt lat="42.25882" lon="22.8371">
        <ele>502.307819</ele>
        <time>2022-04-06T10:21:38.872Z</time>
      </trkpt>
      <trkpt lat="42.2597" lon="22.83455">
        <ele>496.721209</ele>
        <time>2022-04-06T10:22:21.876Z</time>
      </trkpt>
      <trkpt lat="42.26063" lon="22.83185">
        <ele>498.145164</ele>
        <time>2022-04-06T10:23:20.865Z</time>
      </trkpt>
      <trkpt lat="42.26139" lon="22.82904">
        <ele>502.98818</ele>
        <time>2022-04-06T10:24:20.874Z</time>
      </trkpt>
      <trkpt lat="42.2621" lon="22.82635">
        <ele>502.744397</ele>
        <time>2022-04-06T10:25:20.875Z</time>
      </trkpt>
      <trkpt lat="42.26282" lon="22.82355">
        <ele>503.067129</ele>
        <time>2022-04-06T10:26:20.872Z</time>
      </trkpt>
      <trkpt lat="42.26357" lon="22.82069">
        <ele>501.738955</ele>
        <time>2022-04-06T10:27:14.870Z</time>
      </trkpt>
      <trkpt lat="42.26429" lon="22.8179">
        <ele>502.381132</ele>
        <time>2022-04-06T10:28:04.873Z</time>
      </trkpt>
      <trkpt lat="42.26509" lon="22.81479">
        <ele>504.558942</ele>
        <time>2022-04-06T10:29:04.877Z</time>
      </trkpt>
      <trkpt lat="42.26585" lon="22.81177">
        <ele>506.25847</ele>
        <time>2022-04-06T10:30:04.867Z</time>
      </trkpt>
      <trkpt lat="42.26652" lon="22.8091">
        <ele>505.863853</ele>
        <time>2022-04-06T10:30:49.874Z</time>
      </trkpt>
      <trkpt lat="42.26587" lon="22.80659">
        <ele>509.163233</ele>
        <time>2022-04-06T10:31:48.875Z</time>
      </trkpt>
      <trkpt lat="42.26413" lon="22.80488">
        <ele>508.715851</ele>
        <time>2022-04-06T10:32:53.872Z</time>
      </trkpt>
      <trkpt lat="42.26248" lon="22.80313">
        <ele>511.8935</ele>
        <time>2022-04-06T10:34:12.883Z</time>
      </trkpt>
      <trkpt lat="42.2609" lon="22.80143">
        <ele>521.871406</ele>
        <time>2022-04-06T10:35:43.868Z</time>
      </trkpt>
      <trkpt lat="42.25932" lon="22.79971">
        <ele>522.87878</ele>
        <time>2022-04-06T10:37:06.869Z</time>
      </trkpt>
      <trkpt lat="42.25778" lon="22.79765">
        <ele>526.060407</ele>
        <time>2022-04-06T10:38:32.871Z</time>
      </trkpt>
      <trkpt lat="42.25631" lon="22.79567">
        <ele>530.522024</ele>
        <time>2022-04-06T10:39:51.874Z</time>
      </trkpt>
      <trkpt lat="42.25486" lon="22.79375">
        <ele>535.260593</ele>
        <time>2022-04-06T10:41:20.880Z</time>
      </trkpt>
      <trkpt lat="42.25347" lon="22.79187">
        <ele>539.664055</ele>
        <time>2022-04-06T10:42:53.892Z</time>
      </trkpt>
      <trkpt lat="42.25213" lon="22.78996">
        <ele>549.000199</ele>
        <time>2022-04-06T10:44:49.867Z</time>
      </trkpt>
      <trkpt lat="42.25059" lon="22.78812">
        <ele>553.503974</ele>
        <time>2022-04-06T10:46:35.867Z</time>
      </trkpt>
      <trkpt lat="42.24861" lon="22.78622">
        <ele>555.028238</ele>
        <time>2022-04-06T10:47:45.894Z</time>
      </trkpt>
      <trkpt lat="42.24759" lon="22.78384">
        <ele>555.452579</ele>
        <time>2022-04-06T10:48:48.877Z</time>
      </trkpt>
      <trkpt lat="42.24641" lon="22.78147">
        <ele>559.186176</ele>
        <time>2022-04-06T10:49:59.871Z</time>
      </trkpt>
      <trkpt lat="42.24558" lon="22.77895">
        <ele>565.134438</ele>
        <time>2022-04-06T10:51:23.896Z</time>
      </trkpt>
      <trkpt lat="42.2445" lon="22.77678">
        <ele>575.94194</ele>
        <time>2022-04-06T10:53:17.878Z</time>
      </trkpt>
      <trkpt lat="42.24383" lon="22.77416">
        <ele>583.353498</ele>
        <time>2022-04-06T10:54:56.888Z</time>
      </trkpt>
      <trkpt lat="42.24349" lon="22.77162">
        <ele>581.440713</ele>
        <time>2022-04-06T10:55:58.871Z</time>
      </trkpt>
      <trkpt lat="42.24477" lon="22.76947">
        <ele>588.705411</ele>
        <time>2022-04-06T10:57:26.893Z</time>
      </trkpt>
      <trkpt lat="42.24588" lon="22.76734">
        <ele>604.19886</ele>
        <time>2022-04-06T11:00:01.873Z</time>
      </trkpt>
      <trkpt lat="42.24707" lon="22.76522">
        <ele>610.451165</ele>
        <time>2022-04-06T11:02:17.866Z</time>
      </trkpt>
      <trkpt lat="42.24876" lon="22.76257">
        <ele>601.007311</ele>
        <time>2022-04-06T11:03:09.864Z</time>
      </trkpt>
      <trkpt lat="42.25043" lon="22.76108">
        <ele>607.863606</ele>
        <time>2022-04-06T11:04:32.863Z</time>
      </trkpt>
      <trkpt lat="42.25115" lon="22.75866">
        <ele>617.906413</ele>
        <time>2022-04-06T11:06:16.870Z</time>
      </trkpt>
      <trkpt lat="42.25181" lon="22.75594">
        <ele>617.483047</ele>
        <time>2022-04-06T11:07:32.887Z</time>
      </trkpt>
      <trkpt lat="42.25337" lon="22.75364">
        <ele>600.435958</ele>
        <time>2022-04-06T11:07:58.870Z</time>
      </trkpt>
      <trkpt lat="42.25556" lon="22.75187">
        <ele>589.205279</ele>
        <time>2022-04-06T11:08:22.863Z</time>
      </trkpt>
      <trkpt lat="42.2561" lon="22.74946">
        <ele>594.959352</ele>
        <time>2022-04-06T11:09:40.864Z</time>
      </trkpt>
      <trkpt lat="42.25473" lon="22.74686">
        <ele>592.363277</ele>
        <time>2022-04-06T11:10:25.875Z</time>
      </trkpt>
      <trkpt lat="42.25468" lon="22.74423">
        <ele>592.003151</ele>
        <time>2022-04-06T11:11:16.864Z</time>
      </trkpt>
      <trkpt lat="42.25662" lon="22.74369">
        <ele>594.849862</ele>
        <time>2022-04-06T11:12:06.863Z</time>
      </trkpt>
      <trkpt lat="42.25847" lon="22.74331">
        <ele>598.931171</ele>
        <time>2022-04-06T11:13:26.868Z</time>
      </trkpt>
      <trkpt lat="42.26014" lon="22.74144">
        <ele>597.219117</ele>
        <time>2022-04-06T11:14:44.868Z</time>
      </trkpt>
      <trkpt lat="42.26078" lon="22.73848">
        <ele>585.860639</ele>
        <time>2022-04-06T11:15:27.875Z</time>
      </trkpt>
      <trkpt lat="42.26184" lon="22.73507">
        <ele>578.228168</ele>
        <time>2022-04-06T11:16:07.873Z</time>
      </trkpt>
      <trkpt lat="42.2635" lon="22.73285">
        <ele>575.310544</ele>
        <time>2022-04-06T11:17:04.882Z</time>
      </trkpt>
      <trkpt lat="42.2647" lon="22.73049">
        <ele>576.938104</ele>
        <time>2022-04-06T11:18:05.874Z</time>
      </trkpt>
      <trkpt lat="42.2655" lon="22.72756">
        <ele>577.643176</ele>
        <time>2022-04-06T11:19:08.859Z</time>
      </trkpt>
      <trkpt lat="42.26624" lon="22.72484">
        <ele>580.076781</ele>
        <time>2022-04-06T11:20:10.868Z</time>
      </trkpt>
      <trkpt lat="42.26707" lon="22.72238">
        <ele>584.498162</ele>
        <time>2022-04-06T11:21:13.877Z</time>
      </trkpt>
      <trkpt lat="42.2681" lon="22.71993">
        <ele>584.668873</ele>
        <time>2022-04-06T11:22:15.870Z</time>
      </trkpt>
      <trkpt lat="42.26941" lon="22.71715">
        <ele>579.393873</ele>
        <time>2022-04-06T11:23:00.860Z</time>
      </trkpt>
      <trkpt lat="42.2706" lon="22.71427">
        <ele>580.578893</ele>
        <time>2022-04-06T11:24:03.874Z</time>
      </trkpt>
      <trkpt lat="42.27198" lon="22.71185">
        <ele>580.036367</ele>
        <time>2022-04-06T11:25:03.875Z</time>
      </trkpt>
      <trkpt lat="42.2738" lon="22.71106">
        <ele>582.776847</ele>
        <time>2022-04-06T11:26:43.868Z</time>
      </trkpt>
      <trkpt lat="42.27562" lon="22.71013">
        <ele>596.958749</ele>
        <time>2022-04-06T11:28:49.858Z</time>
      </trkpt>
      <trkpt lat="42.27736" lon="22.70903">
        <ele>611.836124</ele>
        <time>2022-04-06T11:31:04.861Z</time>
      </trkpt>
      <trkpt lat="42.27885" lon="22.70658">
        <ele>606.043779</ele>
        <time>2022-04-06T11:32:03.872Z</time>
      </trkpt>
      <trkpt lat="42.27921" lon="22.70365">
        <ele>593.30289</ele>
        <time>2022-04-06T11:32:58.871Z</time>
      </trkpt>
      <trkpt lat="42.28021" lon="22.70128">
        <ele>592.901813</ele>
        <time>2022-04-06T11:34:11.877Z</time>
      </trkpt>
      <trkpt lat="42.28187" lon="22.69941">
        <ele>585.417043</ele>
        <time>2022-04-06T11:34:57.866Z</time>
      </trkpt>
      <trkpt lat="42.28239" lon="22.69728">
        <ele>576.841332</ele>
        <time>2022-04-06T11:36:01.887Z</time>
      </trkpt>
      <trkpt lat="42.28114" lon="22.69488">
        <ele>583.386716</ele>
        <time>2022-04-06T11:37:26.859Z</time>
      </trkpt>
      <trkpt lat="42.27987" lon="22.69248">
        <ele>588.55405</ele>
        <time>2022-04-06T11:38:31.867Z</time>
      </trkpt>
      <trkpt lat="42.27933" lon="22.68985">
        <ele>586.938953</ele>
        <time>2022-04-06T11:39:36.875Z</time>
      </trkpt>
      <trkpt lat="42.27888" lon="22.68864">
        <ele>586.938953</ele>
        <time>2022-04-06T11:41:20.832Z</time>
      </trkpt>
    </trkseg>
  </trk>
</gpx>